createdAt,value
2018-03-24T00:00:01.057Z,2.2
2018-03-24T00:01:03.721Z,2.1
2018-03-24T00:02:06.097Z,2.1
2018-03-24T00:03:08.458Z,2.1
2018-03-24T00:04:11.142Z,2.1
2018-03-24T00:05:13.597Z,2.1
2018-03-24T00:06:16.181Z,2.1
2018-03-24T00:07:18.861Z,2.1
2018-03-24T00:08:21.316Z,2.1
2018-03-24T00:09:24.022Z,2.1
2018-03-24T00:10:26.400Z,2.1
2018-03-24T00:11:29.342Z,2.1
2018-03-24T00:12:32.079Z,2
2018-03-24T00:13:34.665Z,2
2018-03-24T00:14:37.083Z,2.1
2018-03-24T00:15:39.492Z,2
2018-03-24T00:16:41.959Z,2
2018-03-24T00:17:44.327Z,2
2018-03-24T00:18:46.704Z,2
2018-03-24T00:19:49.131Z,2
2018-03-24T00:20:51.784Z,2
2018-03-24T00:21:54.154Z,2.1
2018-03-24T00:22:56.521Z,2
2018-03-24T00:23:59.313Z,2
2018-03-24T00:25:01.727Z,2
2018-03-24T00:26:04.381Z,1.9
2018-03-24T00:27:06.820Z,1.9
2018-03-24T00:28:09.215Z,1.9
2018-03-24T00:29:11.581Z,1.9
2018-03-24T00:30:14.243Z,1.9
2018-03-24T00:31:16.617Z,1.9
2018-03-24T00:32:19.270Z,2
2018-03-24T00:33:21.647Z,2
2018-03-24T00:34:24.015Z,2
2018-03-24T00:35:26.385Z,2
2018-03-24T00:36:28.766Z,2
2018-03-24T00:37:31.158Z,1.9
2018-03-24T00:38:33.561Z,1.9
2018-03-24T00:39:36.213Z,1.9
2018-03-24T00:40:38.600Z,2
2018-03-24T00:41:40.968Z,2
2018-03-24T00:42:43.628Z,2
2018-03-24T00:43:46.668Z,2
2018-03-24T00:44:49.035Z,2
2018-03-24T00:45:51.419Z,2
2018-03-24T00:46:53.790Z,2
2018-03-24T00:47:56.442Z,2
2018-03-24T00:48:58.832Z,2
2018-03-24T00:50:01.480Z,2
2018-03-24T00:51:03.854Z,2
2018-03-24T00:52:06.585Z,2
2018-03-24T00:53:08.939Z,2
2018-03-24T00:54:11.316Z,2
2018-03-24T00:55:13.698Z,2
2018-03-24T00:56:16.074Z,2
2018-03-24T00:57:18.459Z,2
2018-03-24T00:58:20.850Z,2
2018-03-24T00:59:23.223Z,2
2018-03-24T01:00:25.600Z,2
2018-03-24T01:01:28.321Z,2
2018-03-24T01:02:31.248Z,2
2018-03-24T01:03:33.626Z,1.9
2018-03-24T01:04:36.000Z,2
2018-03-24T01:05:38.382Z,2
2018-03-24T01:06:41.038Z,2
2018-03-24T01:07:43.700Z,2
2018-03-24T01:08:46.071Z,2
2018-03-24T01:09:48.450Z,2
2018-03-24T01:10:50.905Z,1.9
2018-03-24T01:11:53.292Z,2
2018-03-24T01:12:55.655Z,2
2018-03-24T01:13:58.035Z,2
2018-03-24T01:15:00.408Z,1.9
2018-03-24T01:16:02.780Z,2
2018-03-24T01:17:05.158Z,2
2018-03-24T01:18:07.529Z,1.9
2018-03-24T01:19:09.890Z,2
2018-03-24T01:20:12.617Z,2
2018-03-24T01:21:14.989Z,2
2018-03-24T01:22:17.650Z,2
2018-03-24T01:23:20.022Z,2
2018-03-24T01:24:22.779Z,2
2018-03-24T01:25:25.448Z,2
2018-03-24T01:26:27.834Z,2
2018-03-24T01:27:30.185Z,2
2018-03-24T01:28:32.566Z,2
2018-03-24T01:29:34.990Z,2
2018-03-24T01:30:37.360Z,2
2018-03-24T01:31:39.743Z,2
2018-03-24T01:32:42.403Z,2
2018-03-24T01:33:44.796Z,2
2018-03-24T01:34:47.480Z,2
2018-03-24T01:35:50.130Z,2.1
2018-03-24T01:36:52.778Z,2.1
2018-03-24T01:37:55.165Z,2
2018-03-24T01:38:57.829Z,2
2018-03-24T01:40:00.196Z,2
2018-03-24T01:41:02.846Z,2.1
2018-03-24T01:42:05.226Z,2.1
2018-03-24T01:43:07.609Z,2
2018-03-24T01:44:09.992Z,2
2018-03-24T01:45:12.354Z,2
2018-03-24T01:46:14.726Z,2
2018-03-24T01:47:17.111Z,2
2018-03-24T01:48:19.480Z,2
2018-03-24T01:49:21.854Z,2
2018-03-24T01:50:24.236Z,2
2018-03-24T01:51:26.884Z,2.1
2018-03-24T01:52:29.273Z,2
2018-03-24T01:53:31.742Z,2
2018-03-24T01:54:34.104Z,2
2018-03-24T01:55:36.472Z,2
2018-03-24T01:56:38.851Z,2
2018-03-24T01:57:41.499Z,2
2018-03-24T01:58:43.906Z,2
2018-03-24T01:59:46.260Z,2.1
2018-03-24T02:00:48.637Z,2.1
2018-03-24T02:01:51.027Z,2.1
2018-03-24T02:02:53.404Z,2.1
2018-03-24T02:03:56.054Z,2
2018-03-24T02:04:58.704Z,2.1
2018-03-24T02:06:01.077Z,2.1
2018-03-24T02:07:03.446Z,2.1
2018-03-24T02:08:05.822Z,2.1
2018-03-24T02:09:08.206Z,2.1
2018-03-24T02:10:10.581Z,2
2018-03-24T02:11:13.056Z,2
2018-03-24T02:12:15.722Z,2
2018-03-24T02:13:18.101Z,2
2018-03-24T02:14:20.477Z,2
2018-03-24T02:15:22.854Z,2
2018-03-24T02:16:25.628Z,2
2018-03-24T02:17:28.265Z,2
2018-03-24T02:18:30.934Z,2
2018-03-24T02:19:33.302Z,2
2018-03-24T02:20:35.973Z,2
2018-03-24T02:21:38.620Z,2
2018-03-24T02:22:40.995Z,2
2018-03-24T02:23:43.370Z,2
2018-03-24T02:24:45.739Z,2.1
2018-03-24T02:25:48.156Z,2.1
2018-03-24T02:26:50.758Z,2.1
2018-03-24T02:27:53.126Z,2.1
2018-03-24T02:28:55.503Z,2
2018-03-24T02:29:58.239Z,2.1
2018-03-24T02:31:00.611Z,2
2018-03-24T02:32:02.984Z,2
2018-03-24T02:33:05.374Z,2
2018-03-24T02:34:07.752Z,2
2018-03-24T02:35:10.111Z,2
2018-03-24T02:36:12.489Z,2
2018-03-24T02:37:14.866Z,2
2018-03-24T02:38:17.235Z,2
2018-03-24T02:39:19.670Z,2
2018-03-24T02:40:22.326Z,2
2018-03-24T02:41:24.702Z,2
2018-03-24T02:42:27.078Z,2
2018-03-24T02:43:29.448Z,2
2018-03-24T02:44:31.818Z,2
2018-03-24T02:45:34.192Z,2
2018-03-24T02:46:36.568Z,1.9
2018-03-24T02:47:39.237Z,2
2018-03-24T02:48:41.616Z,1.9
2018-03-24T02:49:44.058Z,1.9
2018-03-24T02:50:46.433Z,1.9
2018-03-24T02:51:49.099Z,1.9
2018-03-24T02:52:51.481Z,2
2018-03-24T02:53:53.847Z,2
2018-03-24T02:54:56.525Z,2
2018-03-24T02:55:59.468Z,2
2018-03-24T02:57:02.141Z,2
2018-03-24T02:58:04.614Z,2
2018-03-24T02:59:06.966Z,2
2018-03-24T03:00:09.349Z,2
2018-03-24T03:01:11.721Z,1.9
2018-03-24T03:02:14.218Z,2
2018-03-24T03:03:16.588Z,2
2018-03-24T03:04:19.272Z,2
2018-03-24T03:05:21.954Z,2
2018-03-24T03:06:24.916Z,2
2018-03-24T03:07:27.291Z,2
2018-03-24T03:08:29.687Z,2
2018-03-24T03:09:32.051Z,2
2018-03-24T03:10:34.714Z,2
2018-03-24T03:11:37.086Z,2
2018-03-24T03:12:39.456Z,2
2018-03-24T03:13:42.641Z,2
2018-03-24T03:14:45.018Z,2
2018-03-24T03:15:47.383Z,2
2018-03-24T03:16:49.766Z,2
2018-03-24T03:17:52.141Z,2
2018-03-24T03:18:54.511Z,2
2018-03-24T03:19:56.893Z,2
2018-03-24T03:20:59.261Z,2
2018-03-24T03:22:01.637Z,2
2018-03-24T03:23:04.023Z,2
2018-03-24T03:24:06.392Z,2
2018-03-24T03:25:08.784Z,2
2018-03-24T03:26:11.163Z,2
2018-03-24T03:27:13.818Z,2
2018-03-24T03:28:16.187Z,1.9
2018-03-24T03:29:18.565Z,1.9
2018-03-24T03:30:20.932Z,1.9
2018-03-24T03:31:23.306Z,1.9
2018-03-24T03:32:25.969Z,2
2018-03-24T03:33:28.392Z,2
2018-03-24T03:34:30.765Z,2
2018-03-24T03:35:33.236Z,1.9
2018-03-24T03:36:35.604Z,1.9
2018-03-24T03:37:37.986Z,1.9
2018-03-24T03:38:40.580Z,1.9
2018-03-24T03:39:42.974Z,1.9
2018-03-24T03:40:45.323Z,1.9
2018-03-24T03:41:47.688Z,1.9
2018-03-24T03:42:50.056Z,2
2018-03-24T03:43:52.427Z,1.9
2018-03-24T03:44:54.808Z,2
2018-03-24T03:45:57.452Z,1.9
2018-03-24T03:46:59.835Z,1.9
2018-03-24T03:48:02.198Z,1.9
2018-03-24T03:49:04.576Z,1.9
2018-03-24T03:50:06.955Z,1.9
2018-03-24T03:51:09.313Z,1.9
2018-03-24T03:52:11.690Z,1.9
2018-03-24T03:53:14.139Z,1.9
2018-03-24T03:54:16.520Z,1.9
2018-03-24T03:55:18.889Z,1.9
2018-03-24T03:56:21.280Z,1.9
2018-03-24T03:57:23.648Z,1.9
2018-03-24T03:58:26.028Z,1.9
2018-03-24T03:59:28.442Z,1.9
2018-03-24T04:00:31.372Z,1.9
2018-03-24T04:01:33.749Z,1.9
2018-03-24T04:02:36.129Z,1.9
2018-03-24T04:03:38.776Z,1.9
2018-03-24T04:04:41.159Z,1.9
2018-03-24T04:05:43.530Z,1.9
2018-03-24T04:06:46.475Z,1.9
2018-03-24T04:07:48.845Z,1.9
2018-03-24T04:08:51.260Z,1.8
2018-03-24T04:09:53.595Z,1.9
2018-03-24T04:10:55.969Z,1.9
2018-03-24T04:11:58.339Z,1.9
2018-03-24T04:13:00.711Z,1.8
2018-03-24T04:14:03.369Z,1.9
2018-03-24T04:15:06.038Z,1.9
2018-03-24T04:16:08.413Z,1.8
2018-03-24T04:17:10.789Z,1.9
2018-03-24T04:18:13.160Z,1.9
2018-03-24T04:19:15.535Z,1.9
2018-03-24T04:20:17.908Z,1.8
2018-03-24T04:21:20.285Z,1.9
2018-03-24T04:22:22.675Z,1.8
2018-03-24T04:23:25.050Z,1.8
2018-03-24T04:24:27.445Z,1.8
2018-03-24T04:25:29.818Z,1.8
2018-03-24T04:26:32.257Z,1.8
2018-03-24T04:27:34.559Z,1.8
2018-03-24T04:28:36.931Z,1.8
2018-03-24T04:29:39.304Z,1.8
2018-03-24T04:30:41.680Z,1.8
2018-03-24T04:31:44.062Z,1.8
2018-03-24T04:32:46.443Z,1.8
2018-03-24T04:33:48.818Z,1.8
2018-03-24T04:34:51.189Z,1.8
2018-03-24T04:35:53.562Z,1.8
2018-03-24T04:36:55.936Z,1.8
2018-03-24T04:37:58.310Z,1.8
2018-03-24T04:39:00.677Z,1.7
2018-03-24T04:40:03.634Z,1.8
2018-03-24T04:41:06.000Z,1.8
2018-03-24T04:42:08.367Z,1.8
2018-03-24T04:43:10.743Z,1.8
2018-03-24T04:44:13.121Z,1.8
2018-03-24T04:45:16.048Z,1.8
2018-03-24T04:46:18.433Z,1.8
2018-03-24T04:47:20.793Z,1.7
2018-03-24T04:48:23.181Z,1.7
2018-03-24T04:49:25.547Z,1.8
2018-03-24T04:50:27.916Z,1.8
2018-03-24T04:51:30.574Z,1.8
2018-03-24T04:52:33.057Z,1.7
2018-03-24T04:53:35.717Z,1.7
2018-03-24T04:54:38.134Z,1.7
2018-03-24T04:55:40.504Z,1.7
2018-03-24T04:56:42.880Z,1.7
2018-03-24T04:57:45.333Z,1.8
2018-03-24T04:58:47.987Z,1.8
2018-03-24T04:59:50.663Z,1.8
2018-03-24T05:00:53.328Z,1.8
2018-03-24T05:01:56.066Z,1.8
2018-03-24T05:02:58.991Z,1.7
2018-03-24T05:04:01.363Z,1.8
2018-03-24T05:05:03.745Z,1.7
2018-03-24T05:06:06.113Z,1.7
2018-03-24T05:07:08.480Z,1.7
2018-03-24T05:08:10.857Z,1.8
2018-03-24T05:09:13.821Z,1.8
2018-03-24T05:10:16.198Z,1.7
2018-03-24T05:11:18.569Z,1.8
2018-03-24T05:12:20.940Z,1.8
2018-03-24T05:13:23.316Z,1.8
2018-03-24T05:14:25.703Z,1.8
2018-03-24T05:15:28.113Z,1.8
2018-03-24T05:16:30.489Z,1.8
2018-03-24T05:17:32.867Z,1.8
2018-03-24T05:18:35.239Z,1.8
2018-03-24T05:19:37.891Z,1.8
2018-03-24T05:20:40.264Z,1.8
2018-03-24T05:21:42.833Z,1.8
2018-03-24T05:22:45.208Z,1.7
2018-03-24T05:23:47.576Z,1.7
2018-03-24T05:24:49.951Z,1.8
2018-03-24T05:25:52.611Z,1.7
2018-03-24T05:26:55.294Z,1.7
2018-03-24T05:27:57.660Z,1.7
2018-03-24T05:29:00.036Z,1.7
2018-03-24T05:30:02.712Z,1.7
2018-03-24T05:31:05.656Z,1.7
2018-03-24T05:32:08.028Z,1.7
2018-03-24T05:33:10.396Z,1.8
2018-03-24T05:34:12.760Z,1.7
2018-03-24T05:35:15.134Z,1.7
2018-03-24T05:36:17.772Z,1.7
2018-03-24T05:37:20.148Z,1.7
2018-03-24T05:38:22.529Z,1.7
2018-03-24T05:39:24.901Z,1.6
2018-03-24T05:40:27.862Z,1.7
2018-03-24T05:41:30.510Z,1.7
2018-03-24T05:42:33.164Z,1.7
2018-03-24T05:43:35.541Z,1.7
2018-03-24T05:44:38.191Z,1.7
2018-03-24T05:45:40.548Z,1.7
2018-03-24T05:46:42.923Z,1.6
2018-03-24T05:47:45.285Z,1.7
2018-03-24T05:48:47.939Z,1.7
2018-03-24T05:49:50.591Z,1.7
2018-03-24T05:50:52.971Z,1.7
2018-03-24T05:51:55.335Z,1.7
2018-03-24T05:52:57.724Z,1.7
2018-03-24T05:54:00.137Z,1.6
2018-03-24T05:55:02.479Z,1.7
2018-03-24T05:56:05.120Z,1.7
2018-03-24T05:57:07.499Z,1.7
2018-03-24T05:58:09.865Z,1.8
2018-03-24T05:59:12.235Z,1.7
2018-03-24T06:00:14.612Z,1.7
2018-03-24T06:01:16.974Z,1.7
2018-03-24T06:02:19.353Z,1.7
2018-03-24T06:03:21.725Z,1.7
2018-03-24T06:04:24.385Z,1.8
2018-03-24T06:05:26.754Z,1.8
2018-03-24T06:06:29.409Z,1.7
2018-03-24T06:07:31.780Z,1.7
2018-03-24T06:08:34.159Z,1.7
2018-03-24T06:09:36.536Z,1.7
2018-03-24T06:10:38.917Z,1.7
2018-03-24T06:11:41.269Z,1.7
2018-03-24T06:12:43.637Z,1.8
2018-03-24T06:13:46.006Z,1.8
2018-03-24T06:14:48.375Z,1.7
2018-03-24T06:15:51.314Z,1.8
2018-03-24T06:16:53.686Z,1.7
2018-03-24T06:17:56.054Z,1.8
2018-03-24T06:18:59.025Z,1.7
2018-03-24T06:20:01.407Z,1.8
2018-03-24T06:21:03.785Z,1.8
2018-03-24T06:22:06.202Z,1.9
2018-03-24T06:23:08.904Z,1.9
2018-03-24T06:24:11.284Z,1.8
2018-03-24T06:25:13.945Z,1.8
2018-03-24T06:26:16.319Z,1.9
2018-03-24T06:27:18.970Z,1.9
2018-03-24T06:28:21.895Z,1.9
2018-03-24T06:29:24.276Z,2
2018-03-24T06:30:26.652Z,2
2018-03-24T06:31:29.025Z,1.9
2018-03-24T06:32:31.698Z,1.9
2018-03-24T06:33:34.067Z,1.9
2018-03-24T06:34:36.435Z,2
2018-03-24T06:35:38.798Z,1.9
2018-03-24T06:36:41.175Z,1.9
2018-03-24T06:37:43.833Z,2
2018-03-24T06:38:46.213Z,2
2018-03-24T06:39:48.589Z,2
2018-03-24T06:40:50.958Z,2
2018-03-24T06:41:53.331Z,2
2018-03-24T06:42:55.715Z,2
2018-03-24T06:43:58.084Z,2
2018-03-24T06:45:00.466Z,2
2018-03-24T06:46:02.848Z,2.1
2018-03-24T06:47:05.494Z,2.1
2018-03-24T06:48:07.876Z,2.2
2018-03-24T06:49:10.256Z,2.1
2018-03-24T06:50:12.913Z,2.1
2018-03-24T06:51:15.292Z,2.1
2018-03-24T06:52:17.659Z,2.2
2018-03-24T06:53:20.029Z,2.2
2018-03-24T06:54:23.259Z,2.2
2018-03-24T06:55:25.683Z,2.2
2018-03-24T06:56:27.999Z,2.2
2018-03-24T06:57:30.661Z,2.2
2018-03-24T06:58:33.042Z,2.3
2018-03-24T06:59:35.416Z,2.3
2018-03-24T07:00:37.819Z,2.3
2018-03-24T07:01:40.179Z,2.3
2018-03-24T07:02:42.560Z,2.4
2018-03-24T07:03:44.926Z,2.3
2018-03-24T07:04:47.574Z,2.4
2018-03-24T07:05:49.952Z,2.4
2018-03-24T07:06:52.317Z,2.4
2018-03-24T07:07:54.701Z,2.4
2018-03-24T07:08:57.068Z,2.4
2018-03-24T07:09:59.438Z,2.5
2018-03-24T07:11:02.129Z,2.4
2018-03-24T07:12:04.509Z,2.4
2018-03-24T07:13:06.882Z,2.5
2018-03-24T07:14:09.260Z,2.5
2018-03-24T07:15:11.635Z,2.5
2018-03-24T07:16:14.014Z,2.6
2018-03-24T07:17:16.395Z,2.6
2018-03-24T07:18:18.761Z,2.7
2018-03-24T07:19:21.146Z,2.8
2018-03-24T07:20:23.524Z,2.7
2018-03-24T07:21:25.900Z,2.7
2018-03-24T07:22:28.266Z,2.7
2018-03-24T07:23:30.654Z,2.7
2018-03-24T07:24:33.026Z,2.7
2018-03-24T07:25:35.979Z,2.7
2018-03-24T07:26:38.637Z,2.7
2018-03-24T07:27:41.012Z,2.7
2018-03-24T07:28:43.393Z,2.7
2018-03-24T07:29:45.764Z,2.7
2018-03-24T07:30:48.145Z,2.7
2018-03-24T07:31:50.513Z,2.7
2018-03-24T07:32:52.886Z,2.7
2018-03-24T07:33:55.262Z,2.8
2018-03-24T07:34:57.628Z,2.8
2018-03-24T07:36:00.318Z,2.9
2018-03-24T07:37:02.683Z,3
2018-03-24T07:38:05.061Z,2.8
2018-03-24T07:39:07.731Z,2.9
2018-03-24T07:40:10.111Z,3
2018-03-24T07:41:12.481Z,3
2018-03-24T07:42:15.133Z,3
2018-03-24T07:43:17.500Z,3
2018-03-24T07:44:19.879Z,3
2018-03-24T07:45:22.263Z,3
2018-03-24T07:46:24.626Z,3.1
2018-03-24T07:47:27.011Z,3.1
2018-03-24T07:48:29.387Z,3.1
2018-03-24T07:49:31.751Z,3.2
2018-03-24T07:50:34.703Z,3.2
2018-03-24T07:51:37.070Z,3.1
2018-03-24T07:52:39.727Z,3.1
2018-03-24T07:53:42.144Z,3
2018-03-24T07:54:44.477Z,3
2018-03-24T07:55:46.846Z,3
2018-03-24T07:56:49.232Z,3.1
2018-03-24T07:57:51.601Z,3.1
2018-03-24T07:58:53.976Z,3.1
2018-03-24T07:59:56.342Z,3.2
2018-03-24T08:00:58.734Z,3.3
2018-03-24T08:02:01.105Z,3.2
2018-03-24T08:03:03.766Z,3.2
2018-03-24T08:04:06.135Z,3.3
2018-03-24T08:05:08.790Z,3.3
2018-03-24T08:06:11.164Z,3.3
2018-03-24T08:07:13.835Z,3.4
2018-03-24T08:08:16.198Z,3.5
2018-03-24T08:09:18.852Z,3.5
2018-03-24T08:10:21.235Z,3.6
2018-03-24T08:11:23.605Z,3.6
2018-03-24T08:12:25.979Z,3.7
2018-03-24T08:13:28.356Z,3.7
2018-03-24T08:14:30.723Z,3.8
2018-03-24T08:15:33.107Z,3.8
2018-03-24T08:16:35.482Z,3.9
2018-03-24T08:17:37.850Z,3.9
2018-03-24T08:18:40.222Z,3.9
2018-03-24T08:19:43.163Z,3.9
2018-03-24T08:20:45.534Z,4
2018-03-24T08:21:48.200Z,4
2018-03-24T08:22:50.559Z,4.1
2018-03-24T08:23:52.941Z,4
2018-03-24T08:24:55.333Z,4.1
2018-03-24T08:25:57.710Z,4.3
2018-03-24T08:27:00.088Z,4
2018-03-24T08:28:02.757Z,4.1
2018-03-24T08:29:05.130Z,4
2018-03-24T08:30:07.548Z,4.1
2018-03-24T08:31:09.978Z,4.2
2018-03-24T08:32:12.420Z,4.2
2018-03-24T08:33:14.917Z,4.2
2018-03-24T08:34:17.300Z,4.2
2018-03-24T08:35:19.746Z,4.2
2018-03-24T08:36:22.185Z,4.3
2018-03-24T08:37:24.614Z,4.3
2018-03-24T08:38:27.056Z,4.4
2018-03-24T08:39:29.485Z,4.3
2018-03-24T08:40:31.932Z,4.3
2018-03-24T08:41:34.654Z,4.3
2018-03-24T08:42:37.377Z,4.3
2018-03-24T08:43:39.802Z,4.4
2018-03-24T08:44:42.288Z,4.5
2018-03-24T08:45:45.275Z,4.5
2018-03-24T08:46:48.000Z,4.5
2018-03-24T08:47:50.423Z,4.5
2018-03-24T08:48:52.844Z,4.7
2018-03-24T08:49:55.322Z,4.8
2018-03-24T08:50:57.749Z,4.8
2018-03-24T08:52:00.193Z,4.8
2018-03-24T08:53:02.639Z,4.8
2018-03-24T08:54:05.071Z,4.9
2018-03-24T08:55:07.839Z,5
2018-03-24T08:56:10.284Z,4.9
2018-03-24T08:57:12.731Z,4.8
2018-03-24T08:58:15.165Z,4.8
2018-03-24T08:59:17.590Z,5
2018-03-24T09:00:20.027Z,5
2018-03-24T09:01:22.460Z,5.2
2018-03-24T09:02:24.954Z,5.3
2018-03-24T09:03:27.719Z,5.2
2018-03-24T09:04:30.820Z,5.1
2018-03-24T09:05:33.238Z,5.2
2018-03-24T09:06:35.733Z,5.4
2018-03-24T09:07:38.444Z,5.6
2018-03-24T09:08:40.875Z,5.7
2018-03-24T09:09:43.305Z,5.8
2018-03-24T09:10:45.736Z,5.8
2018-03-24T09:11:48.452Z,5.7
2018-03-24T09:12:50.898Z,5.8
2018-03-24T09:13:53.334Z,5.9
2018-03-24T09:14:55.771Z,6
2018-03-24T09:15:58.485Z,6
2018-03-24T09:17:00.909Z,6
2018-03-24T09:18:03.352Z,6
2018-03-24T09:19:06.140Z,6
2018-03-24T09:20:08.569Z,6
2018-03-24T09:21:11.008Z,5.9
2018-03-24T09:22:13.840Z,6
2018-03-24T09:23:16.217Z,6.2
2018-03-24T09:24:18.646Z,6.1
2018-03-24T09:25:21.357Z,6.3
2018-03-24T09:26:23.991Z,6.5
2018-03-24T09:27:26.706Z,6.4
2018-03-24T09:28:29.429Z,6.5
2018-03-24T09:29:31.863Z,6.6
2018-03-24T09:30:34.377Z,6.6
2018-03-24T09:31:36.799Z,6.8
2018-03-24T09:32:39.224Z,6.8
2018-03-24T09:33:41.667Z,6.9
2018-03-24T09:34:44.135Z,6.8
2018-03-24T09:35:46.671Z,6.7
2018-03-24T09:36:49.105Z,6.6
2018-03-24T09:37:51.537Z,6.5
2018-03-24T09:38:54.272Z,6.7
2018-03-24T09:39:56.706Z,6.8
2018-03-24T09:41:00.035Z,6.9
2018-03-24T09:42:02.477Z,6.8
2018-03-24T09:43:05.198Z,6.9
2018-03-24T09:44:07.715Z,6.9
2018-03-24T09:45:10.155Z,7
2018-03-24T09:46:12.572Z,7
2018-03-24T09:47:15.608Z,7
2018-03-24T09:48:18.055Z,6.9
2018-03-24T09:49:20.488Z,6.8
2018-03-24T09:50:22.978Z,7.1
2018-03-24T09:51:25.409Z,7.1
2018-03-24T09:52:27.845Z,7.3
2018-03-24T09:53:30.566Z,7.4
2018-03-24T09:54:33.087Z,7.4
2018-03-24T09:55:35.530Z,7.4
2018-03-24T09:56:38.254Z,7.6
2018-03-24T09:57:40.693Z,7.8
2018-03-24T09:58:43.135Z,7.7
2018-03-24T09:59:45.571Z,7.7
2018-03-24T10:00:48.013Z,7.6
2018-03-24T10:01:50.732Z,7.9
2018-03-24T10:02:53.167Z,7.8
2018-03-24T10:03:55.593Z,7.9
2018-03-24T10:04:58.045Z,7.9
2018-03-24T10:06:00.467Z,7.9
2018-03-24T10:07:03.212Z,7.9
2018-03-24T10:08:05.647Z,7.8
2018-03-24T10:09:08.084Z,7.9
2018-03-24T10:10:10.511Z,7.8
2018-03-24T10:11:12.953Z,7.8
2018-03-24T10:12:15.391Z,7.8
2018-03-24T10:13:18.120Z,7.8
2018-03-24T10:14:20.846Z,8
2018-03-24T10:15:23.288Z,8.1
2018-03-24T10:16:25.754Z,8.4
2018-03-24T10:17:28.484Z,8.3
2018-03-24T10:18:30.918Z,8.6
2018-03-24T10:19:33.366Z,8.6
2018-03-24T10:20:35.941Z,8.4
2018-03-24T10:21:38.656Z,8.4
2018-03-24T10:22:41.089Z,8.4
2018-03-24T10:23:43.628Z,8.5
2018-03-24T10:24:46.359Z,8.6
2018-03-24T10:25:49.658Z,8.5
2018-03-24T10:26:52.371Z,8.6
2018-03-24T10:27:54.941Z,8.8
2018-03-24T10:28:57.409Z,8.9
2018-03-24T10:30:00.525Z,8.9
2018-03-24T10:31:03.258Z,8.6
2018-03-24T10:32:05.702Z,8.5
2018-03-24T10:33:08.142Z,8.5
2018-03-24T10:34:10.582Z,8.5
2018-03-24T10:35:13.019Z,8.8
2018-03-24T10:36:15.459Z,8.9
2018-03-24T10:37:17.893Z,9.2
2018-03-24T10:38:20.744Z,9.2
2018-03-24T10:39:23.171Z,8.8
2018-03-24T10:40:25.903Z,8.9
2018-03-24T10:41:28.343Z,8.9
2018-03-24T10:42:30.785Z,8.8
2018-03-24T10:43:33.222Z,8.7
2018-03-24T10:44:35.660Z,8.8
2018-03-24T10:45:38.123Z,8.7
2018-03-24T10:46:40.870Z,8.7
2018-03-24T10:47:43.306Z,8.8
2018-03-24T10:48:45.740Z,8.9
2018-03-24T10:49:48.181Z,8.8
2018-03-24T10:50:50.611Z,8.6
2018-03-24T10:51:53.341Z,8.8
2018-03-24T10:52:55.879Z,9.1
2018-03-24T10:53:58.315Z,9
2018-03-24T10:55:00.759Z,9.3
2018-03-24T10:56:03.196Z,9.3
2018-03-24T10:57:06.022Z,9.6
2018-03-24T10:58:08.575Z,9.4
2018-03-24T10:59:11.001Z,9.6
2018-03-24T11:00:13.572Z,9.8
2018-03-24T11:01:16.008Z,9.8
2018-03-24T11:02:18.439Z,9.9
2018-03-24T11:03:20.890Z,9.9
2018-03-24T11:04:23.328Z,9.8
2018-03-24T11:05:25.769Z,10
2018-03-24T11:06:28.218Z,10.2
2018-03-24T11:07:30.663Z,10.5
2018-03-24T11:08:33.095Z,10.4
2018-03-24T11:09:35.539Z,10.4
2018-03-24T11:10:38.478Z,10.5
2018-03-24T11:11:40.908Z,10.7
2018-03-24T11:12:43.344Z,10.4
2018-03-24T11:13:45.790Z,10.4
2018-03-24T11:14:48.233Z,10.2
2018-03-24T11:15:50.974Z,10.4
2018-03-24T11:16:53.406Z,10.1
2018-03-24T11:17:55.932Z,10.4
2018-03-24T11:18:58.372Z,10.7
2018-03-24T11:20:00.803Z,10.6
2018-03-24T11:21:03.254Z,10.3
2018-03-24T11:22:05.980Z,10.1
2018-03-24T11:23:08.415Z,10.3
2018-03-24T11:24:10.854Z,10.2
2018-03-24T11:25:13.291Z,10.1
2018-03-24T11:26:15.743Z,10.1
2018-03-24T11:27:18.177Z,9.9
2018-03-24T11:28:20.622Z,10
2018-03-24T11:29:23.635Z,9.9
2018-03-24T11:30:26.065Z,9.9
2018-03-24T11:31:28.502Z,9.6
2018-03-24T11:32:30.941Z,9.7
2018-03-24T11:33:33.383Z,9.5
2018-03-24T11:34:35.814Z,9.8
2018-03-24T11:35:38.864Z,9.8
2018-03-24T11:36:41.874Z,9.6
2018-03-24T11:37:44.322Z,9.7
2018-03-24T11:38:46.814Z,9.8
2018-03-24T11:39:49.196Z,9.8
2018-03-24T11:40:51.636Z,9.8
2018-03-24T11:41:54.291Z,9.9
2018-03-24T11:42:56.729Z,10
2018-03-24T11:43:59.178Z,10.2
2018-03-24T11:45:02.067Z,10.3
2018-03-24T11:46:04.859Z,10.3
2018-03-24T11:47:07.316Z,10.4
2018-03-24T11:48:10.349Z,10.3
2018-03-24T11:49:12.789Z,10.2
2018-03-24T11:50:15.273Z,10.5
2018-03-24T11:51:17.653Z,10.5
2018-03-24T11:52:20.101Z,10.4
2018-03-24T11:53:22.533Z,10.3
2018-03-24T11:54:24.977Z,10.2
2018-03-24T11:55:27.419Z,10.2
2018-03-24T11:56:29.855Z,10.2
2018-03-24T11:57:32.581Z,10.2
2018-03-24T11:58:35.012Z,10.3
2018-03-24T11:59:37.736Z,10.2
2018-03-24T12:00:40.465Z,10.2
2018-03-24T12:01:43.106Z,10.3
2018-03-24T12:02:45.546Z,10.3
2018-03-24T12:03:47.991Z,10.4
2018-03-24T12:04:50.427Z,10.6
2018-03-24T12:05:52.964Z,10.7
2018-03-24T12:06:55.687Z,10.8
2018-03-24T12:07:58.420Z,10.8
2018-03-24T12:09:00.890Z,10.6
2018-03-24T12:10:03.324Z,10.4
2018-03-24T12:11:05.756Z,10.6
2018-03-24T12:12:08.769Z,10.4
2018-03-24T12:13:11.516Z,10.7
2018-03-24T12:14:13.960Z,11
2018-03-24T12:15:16.412Z,11.1
2018-03-24T12:16:19.214Z,11.2
2018-03-24T12:17:21.657Z,10.9
2018-03-24T12:18:24.104Z,10.8
2018-03-24T12:19:26.541Z,10.9
2018-03-24T12:20:28.982Z,10.8
2018-03-24T12:21:31.527Z,11.1
2018-03-24T12:22:33.966Z,11.1
2018-03-24T12:23:36.777Z,11.3
2018-03-24T12:24:39.508Z,11.3
2018-03-24T12:25:41.935Z,11.2
2018-03-24T12:26:44.462Z,11.2
2018-03-24T12:27:46.915Z,11
2018-03-24T12:28:49.352Z,11
2018-03-24T12:29:51.804Z,11.4
2018-03-24T12:30:54.440Z,11.1
2018-03-24T12:31:56.884Z,11.1
2018-03-24T12:32:59.336Z,11.1
2018-03-24T12:34:02.204Z,11.4
2018-03-24T12:35:04.636Z,11.1
2018-03-24T12:36:07.076Z,11.4
2018-03-24T12:37:09.822Z,11.6
2018-03-24T12:38:12.555Z,11.6
2018-03-24T12:39:15.572Z,11.3
2018-03-24T12:40:18.011Z,11.4
2018-03-24T12:41:20.812Z,11.5
2018-03-24T12:42:23.265Z,11.8
2018-03-24T12:43:25.709Z,11.7
2018-03-24T12:44:28.147Z,12.2
2018-03-24T12:45:30.881Z,12.2
2018-03-24T12:46:33.323Z,12.3
2018-03-24T12:47:35.765Z,12.5
2018-03-24T12:48:38.243Z,12.2
2018-03-24T12:49:41.380Z,12.3
2018-03-24T12:50:43.830Z,12.3
2018-03-24T12:51:46.286Z,12.6
2018-03-24T12:52:48.729Z,12.4
2018-03-24T12:53:51.193Z,12.6
2018-03-24T12:54:53.625Z,12.2
2018-03-24T12:55:56.094Z,11.9
2018-03-24T12:56:58.652Z,11.9
2018-03-24T12:58:01.091Z,11.5
2018-03-24T12:59:03.620Z,11.8
2018-03-24T13:00:06.085Z,12.1
2018-03-24T13:01:08.513Z,12.2
2018-03-24T13:02:11.406Z,11.8
2018-03-24T13:03:13.850Z,12.1
2018-03-24T13:04:16.302Z,11.9
2018-03-24T13:05:19.067Z,12
2018-03-24T13:06:21.503Z,11.9
2018-03-24T13:07:24.639Z,12.2
2018-03-24T13:08:27.321Z,12.2
2018-03-24T13:09:29.759Z,12.1
2018-03-24T13:10:32.206Z,12.2
2018-03-24T13:11:34.981Z,12.5
2018-03-24T13:12:37.423Z,12.5
2018-03-24T13:13:39.871Z,12.6
2018-03-24T13:14:42.400Z,12.2
2018-03-24T13:15:44.846Z,12.3
2018-03-24T13:16:47.293Z,12.3
2018-03-24T13:17:49.737Z,12
2018-03-24T13:18:52.485Z,11.7
2018-03-24T13:19:54.929Z,12
2018-03-24T13:20:57.375Z,12.3
2018-03-24T13:21:59.819Z,12.4
2018-03-24T13:23:02.278Z,12.2
2018-03-24T13:24:04.714Z,13
2018-03-24T13:25:07.156Z,13.2
2018-03-24T13:26:09.604Z,13.4
2018-03-24T13:27:12.040Z,13.3
2018-03-24T13:28:15.091Z,13.2
2018-03-24T13:29:17.619Z,13.3
2018-03-24T13:30:20.068Z,13.1
2018-03-24T13:31:22.516Z,12.9
2018-03-24T13:32:24.982Z,12.7
2018-03-24T13:33:27.980Z,12.7
2018-03-24T13:34:30.438Z,12.4
2018-03-24T13:35:33.077Z,12.4
2018-03-24T13:36:35.520Z,12.7
2018-03-24T13:37:37.961Z,12.4
2018-03-24T13:38:40.482Z,11.9
2018-03-24T13:39:42.927Z,12.4
2018-03-24T13:40:45.378Z,12.5
2018-03-24T13:41:47.812Z,13.1
2018-03-24T13:42:50.325Z,12.9
2018-03-24T13:43:52.775Z,13
2018-03-24T13:44:55.552Z,12.9
2018-03-24T13:45:58.310Z,13
2018-03-24T13:47:00.767Z,12.6
2018-03-24T13:48:03.250Z,12.8
2018-03-24T13:49:05.702Z,12.2
2018-03-24T13:50:08.139Z,12.9
2018-03-24T13:51:10.583Z,13.1
2018-03-24T13:52:13.088Z,12.8
2018-03-24T13:53:15.824Z,12.9
2018-03-24T13:54:18.359Z,13.1
2018-03-24T13:55:21.112Z,13.4
2018-03-24T13:56:23.950Z,13.4
2018-03-24T13:57:26.670Z,13.1
2018-03-24T13:58:29.115Z,13.3
2018-03-24T13:59:31.859Z,13.2
2018-03-24T14:00:34.380Z,12.9
2018-03-24T14:01:37.124Z,12.9
2018-03-24T14:02:39.565Z,13
2018-03-24T14:03:42.063Z,13.1
2018-03-24T14:04:44.851Z,13.2
2018-03-24T14:05:47.303Z,12.9
2018-03-24T14:06:49.751Z,13.1
2018-03-24T14:07:52.183Z,13
2018-03-24T14:08:54.635Z,13
2018-03-24T14:09:57.086Z,12.8
2018-03-24T14:10:59.529Z,13.1
2018-03-24T14:12:01.977Z,12.9
2018-03-24T14:13:04.404Z,12.9
2018-03-24T14:14:06.858Z,12.8
2018-03-24T14:15:09.320Z,12.6
2018-03-24T14:16:11.760Z,12.3
2018-03-24T14:17:14.492Z,12.4
2018-03-24T14:18:16.937Z,12.1
2018-03-24T14:19:19.390Z,12.3
2018-03-24T14:20:21.830Z,12.4
2018-03-24T14:21:24.275Z,12
2018-03-24T14:22:26.712Z,11.8
2018-03-24T14:23:29.157Z,11.7
2018-03-24T14:24:31.608Z,11.7
2018-03-24T14:25:34.058Z,11.5
2018-03-24T14:26:36.502Z,11.5
2018-03-24T14:27:39.533Z,11.4
2018-03-24T14:28:41.980Z,11